sensor_id;sensor_type;location;lat;lon;timestamp;pressure;altitude;pressure_sealevel;temperature;humidity
8047;BME280;67150;42.516;23.358;2023-06-26T00:01:12;88394.72;;;20.92;70.71
8047;BME280;67150;42.516;23.358;2023-06-26T00:03:39;88405.78;;;20.93;70.60
8047;BME280;67150;42.516;23.358;2023-06-26T00:06:06;88396.31;;;20.93;70.84
8047;BME280;67150;42.516;23.358;2023-06-26T00:08:34;88392.31;;;20.91;70.78
8047;BME280;67150;42.516;23.358;2023-06-26T00:11:02;88400.66;;;20.93;70.58
8047;BME280;67150;42.516;23.358;2023-06-26T00:13:30;88395.69;;;20.91;70.61
8047;BME280;67150;42.516;23.358;2023-06-26T00:15:57;88391.53;;;20.90;70.55
8047;BME280;67150;42.516;23.358;2023-06-26T00:18:28;88388.97;;;20.90;70.69
8047;BME280;67150;42.516;23.358;2023-06-26T00:20:56;88387.19;;;20.91;70.67
8047;BME280;67150;42.516;23.358;2023-06-26T00:23:23;88382.09;;;20.91;70.73
8047;BME280;67150;42.516;23.358;2023-06-26T00:25:50;88388.97;;;20.90;70.66
8047;BME280;67150;42.516;23.358;2023-06-26T00:28:19;88382.41;;;20.88;70.75
8047;BME280;67150;42.516;23.358;2023-06-26T00:30:46;88387.38;;;20.89;70.70
8047;BME280;67150;42.516;23.358;2023-06-26T00:33:14;88386.75;;;20.87;70.76
8047;BME280;67150;42.516;23.358;2023-06-26T00:35:41;88388.34;;;20.88;70.76
8047;BME280;67150;42.516;23.358;2023-06-26T00:38:08;88385.78;;;20.88;70.60
8047;BME280;67150;42.516;23.358;2023-06-26T00:40:35;88384.97;;;20.88;70.70
8047;BME280;67150;42.516;23.358;2023-06-26T00:43:03;88386.75;;;20.87;70.69
8047;BME280;67150;42.516;23.358;2023-06-26T00:45:31;88384.97;;;20.88;70.77
8047;BME280;67150;42.516;23.358;2023-06-26T00:47:59;88390.28;;;20.86;70.73
8047;BME280;67150;42.516;23.358;2023-06-26T00:50:26;88385.97;;;20.87;70.78
8047;BME280;67150;42.516;23.358;2023-06-26T00:52:54;88382.75;;;20.85;70.77
8047;BME280;67150;42.516;23.358;2023-06-26T00:55:26;88377.50;;;20.86;70.65
8047;BME280;67150;42.516;23.358;2023-06-26T00:57:54;88381.19;;;20.84;70.73
8047;BME280;67150;42.516;23.358;2023-06-26T01:00:22;88381.97;;;20.84;70.72
8047;BME280;67150;42.516;23.358;2023-06-26T01:02:50;88381.97;;;20.84;70.73
8047;BME280;67150;42.516;23.358;2023-06-26T01:05:18;88384.53;;;20.84;70.70
8047;BME280;67150;42.516;23.358;2023-06-26T01:07:47;88386.31;;;20.84;70.86
8047;BME280;67150;42.516;23.358;2023-06-26T01:10:15;88383.75;;;20.84;70.72
8047;BME280;67150;42.516;23.358;2023-06-26T01:12:43;88386.13;;;20.85;70.70
8047;BME280;67150;42.516;23.358;2023-06-26T01:15:10;88372.72;;;20.83;70.57
8047;BME280;67150;42.516;23.358;2023-06-26T01:17:38;88380.38;;;20.83;70.42
8047;BME280;67150;42.516;23.358;2023-06-26T01:20:12;88374.28;;;20.84;70.57
8047;BME280;67150;42.516;23.358;2023-06-26T01:22:47;88377.03;;;20.83;70.48
8047;BME280;67150;42.516;23.358;2023-06-26T01:25:21;88378.78;;;20.82;70.73
8047;BME280;67150;42.516;23.358;2023-06-26T01:27:53;88373.06;;;20.80;70.60
8047;BME280;67150;42.516;23.358;2023-06-26T01:30:22;88370.66;;;20.79;70.59
8047;BME280;67150;42.516;23.358;2023-06-26T01:32:50;88362.81;;;20.80;70.62
8047;BME280;67150;42.516;23.358;2023-06-26T01:35:17;88366.31;;;20.79;70.55
8047;BME280;67150;42.516;23.358;2023-06-26T01:37:45;88352.56;;;20.80;70.62
8047;BME280;67150;42.516;23.358;2023-06-26T01:40:12;88354.50;;;20.78;70.55
8047;BME280;67150;42.516;23.358;2023-06-26T01:42:39;88351.94;;;20.78;70.59
8047;BME280;67150;42.516;23.358;2023-06-26T01:45:14;88338.38;;;20.69;70.72
8047;BME280;67150;42.516;23.358;2023-06-26T01:47:46;88336.34;;;20.65;70.49
8047;BME280;67150;42.516;23.358;2023-06-26T01:50:19;88342.09;;;20.67;70.53
8047;BME280;67150;42.516;23.358;2023-06-26T01:52:56;88356.44;;;20.76;70.69
8047;BME280;67150;42.516;23.358;2023-06-26T01:55:28;88353.88;;;20.76;70.37
8047;BME280;67150;42.516;23.358;2023-06-26T01:58:02;88353.88;;;20.76;70.31
8047;BME280;67150;42.516;23.358;2023-06-26T02:00:31;88354.84;;;20.75;70.48
8047;BME280;67150;42.516;23.358;2023-06-26T02:02:59;88343.81;;;20.75;70.51
8047;BME280;67150;42.516;23.358;2023-06-26T02:05:26;88348.13;;;20.74;70.45
8047;BME280;67150;42.516;23.358;2023-06-26T02:07:56;88337.88;;;20.74;70.55
8047;BME280;67150;42.516;23.358;2023-06-26T02:10:23;88336.94;;;20.75;70.26
8047;BME280;67150;42.516;23.358;2023-06-26T02:12:51;88340.44;;;20.74;70.19
8047;BME280;67150;42.516;23.358;2023-06-26T02:15:18;88332.91;;;20.73;70.27
8047;BME280;67150;42.516;23.358;2023-06-26T02:17:47;88336.63;;;20.70;70.34
8047;BME280;67150;42.516;23.358;2023-06-26T02:20:14;88330.53;;;20.71;70.42
8047;BME280;67150;42.516;23.358;2023-06-26T02:22:41;88326.69;;;20.75;70.32
8047;BME280;67150;42.516;23.358;2023-06-26T02:25:09;88314.00;;;20.59;70.41
8047;BME280;67150;42.516;23.358;2023-06-26T02:27:38;88334.06;;;20.70;70.35
8047;BME280;67150;42.516;23.358;2023-06-26T02:30:07;88336.63;;;20.70;70.20
8047;BME280;67150;42.516;23.358;2023-06-26T02:32:35;88333.44;;;20.68;70.17
8047;BME280;67150;42.516;23.358;2023-06-26T02:35:05;88344.66;;;20.67;70.26
8047;BME280;67150;42.516;23.358;2023-06-26T02:37:32;88345.63;;;20.66;70.02
8047;BME280;67150;42.516;23.358;2023-06-26T02:39:59;88347.22;;;20.67;70.25
8047;BME280;67150;42.516;23.358;2023-06-26T02:42:26;88339.88;;;20.64;70.19
8047;BME280;67150;42.516;23.358;2023-06-26T02:44:54;88342.09;;;20.67;70.18
8047;BME280;67150;42.516;23.358;2023-06-26T02:47:21;88351.38;;;20.68;70.00
8047;BME280;67150;42.516;23.358;2023-06-26T02:49:48;88337.31;;;20.64;70.12
8047;BME280;67150;42.516;23.358;2023-06-26T02:52:17;88331.41;;;20.63;70.13
8047;BME280;67150;42.516;23.358;2023-06-26T02:54:44;88329.63;;;20.64;70.16
8047;BME280;67150;42.516;23.358;2023-06-26T02:57:12;88334.94;;;20.62;69.96
8047;BME280;67150;42.516;23.358;2023-06-26T02:59:40;88339.25;;;20.62;70.08
8047;BME280;67150;42.516;23.358;2023-06-26T03:02:07;88339.25;;;20.62;70.03
8047;BME280;67150;42.516;23.358;2023-06-26T03:04:35;88345.34;;;20.61;69.81
8047;BME280;67150;42.516;23.358;2023-06-26T03:07:04;88347.88;;;20.61;70.01
8047;BME280;67150;42.516;23.358;2023-06-26T03:09:33;88347.88;;;20.61;69.97
8047;BME280;67150;42.516;23.358;2023-06-26T03:12:00;88344.38;;;20.62;69.94
8047;BME280;67150;42.516;23.358;2023-06-26T03:14:28;88347.13;;;20.60;69.94
8047;BME280;67150;42.516;23.358;2023-06-26T03:16:55;88362.63;;;20.59;70.01
8047;BME280;67150;42.516;23.358;2023-06-26T03:19:24;88358.47;;;20.58;69.84
8047;BME280;67150;42.516;23.358;2023-06-26T03:21:52;88361.69;;;20.60;69.95
8047;BME280;67150;42.516;23.358;2023-06-26T03:24:20;88358.31;;;20.59;69.83
8047;BME280;67150;42.516;23.358;2023-06-26T03:26:49;88365.19;;;20.59;69.90
8047;BME280;67150;42.516;23.358;2023-06-26T03:29:17;88353.34;;;20.58;69.99
8047;BME280;67150;42.516;23.358;2023-06-26T03:31:44;88355.91;;;20.58;69.92
8047;BME280;67150;42.516;23.358;2023-06-26T03:34:11;88355.13;;;20.57;70.04
8047;BME280;67150;42.516;23.358;2023-06-26T03:36:42;88349.38;;;20.55;70.04
8047;BME280;67150;42.516;23.358;2023-06-26T03:39:09;88356.09;;;20.56;69.87
8047;BME280;67150;42.516;23.358;2023-06-26T03:41:36;88347.47;;;20.57;69.97
8047;BME280;67150;42.516;23.358;2023-06-26T03:53:15;88357.91;;;20.17;71.31
8047;BME280;67150;42.516;23.358;2023-06-26T03:55:43;88357.28;;;20.15;71.68
8047;BME280;67150;42.516;23.358;2023-06-26T03:58:10;88351.03;;;20.18;71.70
8047;BME280;67150;42.516;23.358;2023-06-26T04:00:37;88345.56;;;20.21;71.36
8047;BME280;67150;42.516;23.358;2023-06-26T04:03:05;88346.84;;;20.25;71.17
8047;BME280;67150;42.516;23.358;2023-06-26T04:05:33;88347.47;;;20.27;71.10
8047;BME280;67150;42.516;23.358;2023-06-26T04:08:01;88351.47;;;20.29;70.92
8047;BME280;67150;42.516;23.358;2023-06-26T04:10:30;88355.28;;;20.33;70.86
8047;BME280;67150;42.516;23.358;2023-06-26T04:12:57;88358.31;;;20.37;70.85
8047;BME280;67150;42.516;23.358;2023-06-26T04:15:24;88355.56;;;20.38;70.63
8047;BME280;67150;42.516;23.358;2023-06-26T04:17:52;88353.00;;;20.38;70.61
8047;BME280;67150;42.516;23.358;2023-06-26T04:20:19;88354.44;;;20.41;70.60
8047;BME280;67150;42.516;23.358;2023-06-26T04:22:46;88354.44;;;20.41;70.59
8047;BME280;67150;42.516;23.358;2023-06-26T04:25:14;88357.00;;;20.41;70.58
8047;BME280;67150;42.516;23.358;2023-06-26T04:27:42;88357.97;;;20.40;70.52
8047;BME280;67150;42.516;23.358;2023-06-26T04:30:11;88365.31;;;20.43;70.37
8047;BME280;67150;42.516;23.358;2023-06-26T04:32:38;88365.31;;;20.43;70.47
8047;BME280;67150;42.516;23.358;2023-06-26T04:35:06;88362.75;;;20.43;70.39
8047;BME280;67150;42.516;23.358;2023-06-26T04:37:34;88365.94;;;20.45;70.38
8047;BME280;67150;42.516;23.358;2023-06-26T04:40:02;88364.50;;;20.42;70.41
8047;BME280;67150;42.516;23.358;2023-06-26T04:42:31;88357.63;;;20.43;70.36
8047;BME280;67150;42.516;23.358;2023-06-26T04:44:59;88355.22;;;20.41;70.29
8047;BME280;67150;42.516;23.358;2023-06-26T04:47:28;88358.25;;;20.45;70.45
8047;BME280;67150;42.516;23.358;2023-06-26T04:49:56;88365.31;;;20.43;70.47
8047;BME280;67150;42.516;23.358;2023-06-26T04:52:23;88360.34;;;20.41;70.38
8047;BME280;67150;42.516;23.358;2023-06-26T04:54:50;88359.41;;;20.42;70.41
8047;BME280;67150;42.516;23.358;2023-06-26T04:57:17;88362.75;;;20.43;70.44
8047;BME280;67150;42.516;23.358;2023-06-26T04:59:45;88369.44;;;20.44;70.53
8047;BME280;67150;42.516;23.358;2023-06-26T05:02:13;88361.94;;;20.42;70.44
8047;BME280;67150;42.516;23.358;2023-06-26T05:04:41;88368.03;;;20.41;70.56
8047;BME280;67150;42.516;23.358;2023-06-26T05:07:08;88368.81;;;20.42;70.37
8047;BME280;67150;42.516;23.358;2023-06-26T05:09:35;88370.78;;;20.40;70.49
8047;BME280;67150;42.516;23.358;2023-06-26T05:12:03;88379.06;;;20.42;70.46
8047;BME280;67150;42.516;23.358;2023-06-26T05:14:31;88376.50;;;20.42;70.37
8047;BME280;67150;42.516;23.358;2023-06-26T05:16:58;88376.50;;;20.42;70.62
8047;BME280;67150;42.516;23.358;2023-06-26T05:19:27;88384.53;;;20.39;70.37
8047;BME280;67150;42.516;23.358;2023-06-26T05:21:55;88381.00;;;20.40;70.49
8047;BME280;67150;42.516;23.358;2023-06-26T05:24:23;88381.00;;;20.40;70.50
8047;BME280;67150;42.516;23.358;2023-06-26T05:26:51;88373.31;;;20.40;70.45
8047;BME280;67150;42.516;23.358;2023-06-26T05:29:19;88375.88;;;20.40;70.58
8047;BME280;67150;42.516;23.358;2023-06-26T05:31:47;88381.34;;;20.37;70.57
8047;BME280;67150;42.516;23.358;2023-06-26T05:34:17;88380.19;;;20.39;70.34
8047;BME280;67150;42.516;23.358;2023-06-26T05:36:49;88373.47;;;20.38;70.41
8047;BME280;67150;42.516;23.358;2023-06-26T05:39:18;88378.44;;;20.40;70.44
8047;BME280;67150;42.516;23.358;2023-06-26T05:41:46;88379.75;;;20.36;70.54
8047;BME280;67150;42.516;23.358;2023-06-26T05:44:13;88388.69;;;20.40;70.36
8047;BME280;67150;42.516;23.358;2023-06-26T05:46:40;88379.41;;;20.39;70.36
8047;BME280;67150;42.516;23.358;2023-06-26T05:49:07;88375.88;;;20.40;70.53
8047;BME280;67150;42.516;23.358;2023-06-26T05:51:35;88382.91;;;20.38;70.57
8047;BME280;67150;42.516;23.358;2023-06-26T05:54:05;88384.34;;;20.40;70.52
8047;BME280;67150;42.516;23.358;2023-06-26T05:56:33;88385.31;;;20.39;70.45
8047;BME280;67150;42.516;23.358;2023-06-26T05:59:01;88392.00;;;20.40;70.49
8047;BME280;67150;42.516;23.358;2023-06-26T06:01:29;88392.19;;;20.39;70.51
8047;BME280;67150;42.516;23.358;2023-06-26T06:03:56;88391.25;;;20.40;70.59
8047;BME280;67150;42.516;23.358;2023-06-26T06:06:23;88379.41;;;20.39;70.38
8047;BME280;67150;42.516;23.358;2023-06-26T06:08:51;88386.91;;;20.40;70.35
8047;BME280;67150;42.516;23.358;2023-06-26T06:11:20;88388.69;;;20.40;70.55
8047;BME280;67150;42.516;23.358;2023-06-26T06:13:49;88387.88;;;20.39;70.39
8047;BME280;67150;42.516;23.358;2023-06-26T06:16:16;88382.75;;;20.39;70.54
8047;BME280;67150;42.516;23.358;2023-06-26T06:18:44;88387.69;;;20.41;70.42
8047;BME280;67150;42.516;23.358;2023-06-26T06:21:11;88374.91;;;20.41;70.49
8047;BME280;67150;42.516;23.358;2023-06-26T06:23:38;88373.94;;;20.42;70.23
8047;BME280;67150;42.516;23.358;2023-06-26T06:26:06;88373.59;;;20.45;70.31
8047;BME280;67150;42.516;23.358;2023-06-26T06:28:34;88376.16;;;20.45;70.27
8047;BME280;67150;42.516;23.358;2023-06-26T06:31:01;88369.28;;;20.45;70.32
8047;BME280;67150;42.516;23.358;2023-06-26T06:33:29;88371.66;;;20.47;70.37
8047;BME280;67150;42.516;23.358;2023-06-26T06:35:56;88375.56;;;20.43;70.61
8047;BME280;67150;42.516;23.358;2023-06-26T06:38:23;88378.72;;;20.45;70.38
8047;BME280;67150;42.516;23.358;2023-06-26T06:40:51;88376.00;;;20.46;70.34
8047;BME280;67150;42.516;23.358;2023-06-26T06:43:18;88373.09;;;20.49;70.37
8047;BME280;67150;42.516;23.358;2023-06-26T06:45:47;88377.44;;;20.49;70.30
8047;BME280;67150;42.516;23.358;2023-06-26T06:48:14;88372.31;;;20.49;70.36
8047;BME280;67150;42.516;23.358;2023-06-26T06:50:41;88371.94;;;20.52;70.35
8047;BME280;67150;42.516;23.358;2023-06-26T06:53:09;88375.50;;;20.51;70.40
8047;BME280;67150;42.516;23.358;2023-06-26T06:55:36;88379.00;;;20.50;70.42
8047;BME280;67150;42.516;23.358;2023-06-26T06:58:04;88380.59;;;20.51;70.49
8047;BME280;67150;42.516;23.358;2023-06-26T07:00:31;88377.06;;;20.52;70.49
8047;BME280;67150;42.516;23.358;2023-06-26T07:03:00;88369.38;;;20.52;70.55
8047;BME280;67150;42.516;23.358;2023-06-26T07:05:27;88370.19;;;20.52;70.43
8047;BME280;67150;42.516;23.358;2023-06-26T07:07:54;88371.94;;;20.52;70.48
8047;BME280;67150;42.516;23.358;2023-06-26T07:10:21;88374.16;;;20.55;70.47
8047;BME280;67150;42.516;23.358;2023-06-26T07:12:49;88378.34;;;20.56;70.45
8047;BME280;67150;42.516;23.358;2023-06-26T07:15:16;88370.66;;;20.56;70.39
8047;BME280;67150;42.516;23.358;2023-06-26T07:17:44;88374.00;;;20.56;70.48
8047;BME280;67150;42.516;23.358;2023-06-26T07:20:12;88372.41;;;20.55;70.56
8047;BME280;67150;42.516;23.358;2023-06-26T07:22:42;88368.91;;;20.56;70.41
8047;BME280;67150;42.516;23.358;2023-06-26T07:25:10;88374.81;;;20.57;70.47
8047;BME280;67150;42.516;23.358;2023-06-26T07:27:38;88373.81;;;20.58;70.37
8047;BME280;67150;42.516;23.358;2023-06-26T07:30:06;88378.94;;;20.58;70.56
8047;BME280;67150;42.516;23.358;2023-06-26T07:32:35;88373.81;;;20.58;70.48
8047;BME280;67150;42.516;23.358;2023-06-26T07:35:03;88365.19;;;20.59;70.52
8047;BME280;67150;42.516;23.358;2023-06-26T07:37:32;88373.50;;;20.61;70.42
8047;BME280;67150;42.516;23.358;2023-06-26T07:39:59;88367.59;;;20.60;70.41
8047;BME280;67150;42.516;23.358;2023-06-26T07:42:26;88371.72;;;20.61;70.39
8047;BME280;67150;42.516;23.358;2023-06-26T07:44:53;88376.25;;;20.59;70.48
8047;BME280;67150;42.516;23.358;2023-06-26T07:47:21;88382.31;;;20.58;70.72
8047;BME280;67150;42.516;23.358;2023-06-26T07:49:48;88385.66;;;20.59;70.42
8047;BME280;67150;42.516;23.358;2023-06-26T07:52:15;88383.28;;;20.57;70.71
8047;BME280;67150;42.516;23.358;2023-06-26T07:54:44;88390.19;;;20.57;70.66
8047;BME280;67150;42.516;23.358;2023-06-26T07:57:12;88395.28;;;20.57;70.58
8047;BME280;67150;42.516;23.358;2023-06-26T07:59:39;88394.50;;;20.56;70.50
8047;BME280;67150;42.516;23.358;2023-06-26T08:02:07;88397.66;;;20.58;70.68
8047;BME280;67150;42.516;23.358;2023-06-26T08:04:34;88391.94;;;20.56;70.52
8047;BME280;67150;42.516;23.358;2023-06-26T08:07:02;88394.03;;;20.53;70.47
8047;BME280;67150;42.516;23.358;2023-06-26T08:09:30;88388.91;;;20.53;70.67
8047;BME280;67150;42.516;23.358;2023-06-26T08:11:59;88391.13;;;20.56;70.59
8047;BME280;67150;42.516;23.358;2023-06-26T08:14:26;88398.81;;;20.56;70.52
8047;BME280;67150;42.516;23.358;2023-06-26T08:16:54;88384.41;;;20.55;70.53
8047;BME280;67150;42.516;23.358;2023-06-26T08:19:21;88382.84;;;20.54;70.69
8047;BME280;67150;42.516;23.358;2023-06-26T08:21:49;88384.41;;;20.55;70.63
8047;BME280;67150;42.516;23.358;2023-06-26T08:24:16;88380.09;;;20.55;70.39
8047;BME280;67150;42.516;23.358;2023-06-26T08:26:45;88377.38;;;20.57;70.56
8047;BME280;67150;42.516;23.358;2023-06-26T08:29:13;88367.13;;;20.57;70.57
8047;BME280;67150;42.516;23.358;2023-06-26T08:31:42;88368.28;;;20.54;70.52
8047;BME280;67150;42.516;23.358;2023-06-26T08:34:09;88379.28;;;20.55;70.55
8047;BME280;67150;42.516;23.358;2023-06-26T08:36:37;88380.56;;;20.59;70.43
8047;BME280;67150;42.516;23.358;2023-06-26T08:39:04;88385.53;;;20.60;70.51
8047;BME280;67150;42.516;23.358;2023-06-26T08:41:32;88386.94;;;20.63;70.37
8047;BME280;67150;42.516;23.358;2023-06-26T08:43:59;88379.25;;;20.63;70.33
8047;BME280;67150;42.516;23.358;2023-06-26T08:46:28;88370.66;;;20.56;70.48
8047;BME280;67150;42.516;23.358;2023-06-26T08:48:57;88388.22;;;20.59;70.48
8047;BME280;67150;42.516;23.358;2023-06-26T08:51:28;88387.75;;;20.63;70.35
8047;BME280;67150;42.516;23.358;2023-06-26T08:53:57;88385.00;;;20.65;70.39
8047;BME280;67150;42.516;23.358;2023-06-26T08:56:28;88389.16;;;20.66;70.41
8047;BME280;67150;42.516;23.358;2023-06-26T08:58:58;88386.59;;;20.66;70.34
8047;BME280;67150;42.516;23.358;2023-06-26T09:01:28;88388.41;;;20.57;70.85
8047;BME280;67150;42.516;23.358;2023-06-26T09:03:55;88386.94;;;20.63;70.48
8047;BME280;67150;42.516;23.358;2023-06-26T09:06:23;88384.03;;;20.66;70.46
8047;BME280;67150;42.516;23.358;2023-06-26T09:08:50;88386.94;;;20.63;70.51
8047;BME280;67150;42.516;23.358;2023-06-26T09:11:17;88381.81;;;20.63;70.52
8047;BME280;67150;42.516;23.358;2023-06-26T09:13:45;88393.47;;;20.65;70.54
8047;BME280;67150;42.516;23.358;2023-06-26T09:16:13;88387.56;;;20.65;70.72
8047;BME280;67150;42.516;23.358;2023-06-26T09:18:42;88385.34;;;20.62;70.71
8047;BME280;67150;42.516;23.358;2023-06-26T09:21:10;88392.22;;;20.61;70.76
8047;BME280;67150;42.516;23.358;2023-06-26T09:23:39;88389.31;;;20.64;70.63
8047;BME280;67150;42.516;23.358;2023-06-26T09:26:07;88389.78;;;20.68;70.44
8047;BME280;67150;42.516;23.358;2023-06-26T09:28:35;88386.94;;;20.63;70.79
8047;BME280;67150;42.516;23.358;2023-06-26T09:31:03;88382.97;;;20.60;70.98
8047;BME280;67150;42.516;23.358;2023-06-26T09:33:33;88384.38;;;20.63;70.78
8047;BME280;67150;42.516;23.358;2023-06-26T09:36:06;88385.34;;;20.62;70.94
8047;BME280;67150;42.516;23.358;2023-06-26T09:38:35;88371.44;;;20.56;70.82
8047;BME280;67150;42.516;23.358;2023-06-26T09:41:03;88383.22;;;20.65;70.78
8047;BME280;67150;42.516;23.358;2023-06-26T09:43:31;88388.34;;;20.65;70.58
8047;BME280;67150;42.516;23.358;2023-06-26T09:45:58;88388.34;;;20.65;70.56
8047;BME280;67150;42.516;23.358;2023-06-26T09:48:28;88388.16;;;20.67;70.45
8047;BME280;67150;42.516;23.358;2023-06-26T09:50:55;88389.84;;;20.60;70.77
8047;BME280;67150;42.516;23.358;2023-06-26T09:53:25;88390.31;;;20.63;70.63
8047;BME280;67150;42.516;23.358;2023-06-26T09:55:52;88393.47;;;20.65;70.62
8047;BME280;67150;42.516;23.358;2023-06-26T09:58:21;88386.59;;;20.66;70.57
8047;BME280;67150;42.516;23.358;2023-06-26T10:00:51;88386.59;;;20.66;70.67
8047;BME280;67150;42.516;23.358;2023-06-26T10:03:18;88388.34;;;20.65;70.68
8047;BME280;67150;42.516;23.358;2023-06-26T10:05:48;88385.59;;;20.67;70.70
8047;BME280;67150;42.516;23.358;2023-06-26T10:08:17;88388.50;;;20.64;70.89
8047;BME280;67150;42.516;23.358;2023-06-26T10:10:46;88378.44;;;20.62;70.89
8047;BME280;67150;42.516;23.358;2023-06-26T10:13:16;88385.53;;;20.60;70.95
8047;BME280;67150;42.516;23.358;2023-06-26T10:15:48;88383.38;;;20.64;70.87
8047;BME280;67150;42.516;23.358;2023-06-26T10:18:18;88395.22;;;20.65;70.96
8047;BME280;67150;42.516;23.358;2023-06-26T10:20:50;88387.56;;;20.65;71.02
8047;BME280;67150;42.516;23.358;2023-06-26T10:23:20;88393.28;;;20.67;70.97
8047;BME280;67150;42.516;23.358;2023-06-26T10:25:52;88391.06;;;20.64;71.26
8047;BME280;67150;42.516;23.358;2023-06-26T10:28:22;88391.38;;;20.69;70.93
8047;BME280;67150;42.516;23.358;2023-06-26T10:30:51;88389.97;;;20.66;70.86
8047;BME280;67150;42.516;23.358;2023-06-26T10:33:19;88377.94;;;20.67;70.90
8047;BME280;67150;42.516;23.358;2023-06-26T10:35:47;88391.81;;;20.73;70.65
8047;BME280;67150;42.516;23.358;2023-06-26T10:38:15;88393.41;;;20.74;70.53
8047;BME280;67150;42.516;23.358;2023-06-26T10:40:44;88389.09;;;20.74;70.47
8047;BME280;67150;42.516;23.358;2023-06-26T10:43:15;88380.50;;;20.67;70.47
8047;BME280;67150;42.516;23.358;2023-06-26T10:45:46;88381.63;;;20.64;70.39
8047;BME280;67150;42.516;23.358;2023-06-26T10:48:18;88392.63;;;20.73;70.49
8047;BME280;67150;42.516;23.358;2023-06-26T10:50:47;88395.19;;;20.73;70.48
8047;BME280;67150;42.516;23.358;2023-06-26T10:53:16;88393.59;;;20.72;70.50
8047;BME280;67150;42.516;23.358;2023-06-26T10:55:55;88379.19;;;20.71;70.43
8047;BME280;67150;42.516;23.358;2023-06-26T10:58:45;88387.50;;;20.73;70.45
8047;BME280;67150;42.516;23.358;2023-06-26T11:01:21;88375.69;;;20.72;70.34
8047;BME280;67150;42.516;23.358;2023-06-26T11:04:01;88371.31;;;20.73;70.44
8047;BME280;67150;42.516;23.358;2023-06-26T11:06:31;88373.13;;;20.72;70.40
8047;BME280;67150;42.516;23.358;2023-06-26T11:09:06;88372.81;;;20.67;70.29
8047;BME280;67150;42.516;23.358;2023-06-26T11:11:58;88358.25;;;20.67;70.66
8047;BME280;67150;42.516;23.358;2023-06-26T11:14:32;88366.38;;;20.71;70.42
8047;BME280;67150;42.516;23.358;2023-06-26T11:17:03;88368.16;;;20.71;70.50
8047;BME280;67150;42.516;23.358;2023-06-26T11:19:31;88370.56;;;20.72;70.49
8047;BME280;67150;42.516;23.358;2023-06-26T11:21:59;88369.56;;;20.73;70.39
8047;BME280;67150;42.516;23.358;2023-06-26T11:24:28;88366.53;;;20.69;70.68
8047;BME280;67150;42.516;23.358;2023-06-26T11:27:00;88369.91;;;20.70;70.56
8047;BME280;67150;42.516;23.358;2023-06-26T11:29:34;88368.16;;;20.71;70.56
8047;BME280;67150;42.516;23.358;2023-06-26T11:32:03;88369.09;;;20.69;70.57
8047;BME280;67150;42.516;23.358;2023-06-26T11:34:32;88368.94;;;20.71;70.67
8047;BME280;67150;42.516;23.358;2023-06-26T11:37:00;88372.13;;;20.73;70.46
8047;BME280;67150;42.516;23.358;2023-06-26T11:39:30;88375.34;;;20.75;70.47
8047;BME280;67150;42.516;23.358;2023-06-26T11:41:59;88355.41;;;20.62;70.47
8047;BME280;67150;42.516;23.358;2023-06-26T11:44:31;88372.94;;;20.74;70.39
8047;BME280;67150;42.516;23.358;2023-06-26T11:46:58;88381.41;;;20.74;70.29
8047;BME280;67150;42.516;23.358;2023-06-26T11:49:28;88385.56;;;20.75;70.32
8047;BME280;67150;42.516;23.358;2023-06-26T11:51:55;88376.28;;;20.74;70.34
8047;BME280;67150;42.516;23.358;2023-06-26T11:54:24;88372.38;;;20.63;70.50
8047;BME280;67150;42.516;23.358;2023-06-26T11:56:53;88383.16;;;20.74;70.47
8047;BME280;67150;42.516;23.358;2023-06-26T11:59:22;88385.56;;;20.75;70.40
8047;BME280;67150;42.516;23.358;2023-06-26T12:01:51;88367.34;;;20.70;70.30
8047;BME280;67150;42.516;23.358;2023-06-26T12:04:20;88380.47;;;20.75;70.41
8047;BME280;67150;42.516;23.358;2023-06-26T12:06:49;88377.56;;;20.78;70.27
8047;BME280;67150;42.516;23.358;2023-06-26T12:09:18;88372.94;;;20.74;70.68
8047;BME280;67150;42.516;23.358;2023-06-26T12:11:48;88376.09;;;20.76;70.45
8047;BME280;67150;42.516;23.358;2023-06-26T12:14:20;88374.34;;;20.76;70.47
8047;BME280;67150;42.516;23.358;2023-06-26T12:16:48;88373.88;;;20.73;70.55
8047;BME280;67150;42.516;23.358;2023-06-26T12:19:16;88373.38;;;20.77;70.53
8047;BME280;67150;42.516;23.358;2023-06-26T12:21:47;88377.56;;;20.78;70.43
8047;BME280;67150;42.516;23.358;2023-06-26T12:24:19;88369.88;;;20.78;70.37
8047;BME280;67150;42.516;23.358;2023-06-26T12:26:49;88370.22;;;20.75;70.59
8047;BME280;67150;42.516;23.358;2023-06-26T12:29:20;88367.66;;;20.75;70.62
8047;BME280;67150;42.516;23.358;2023-06-26T12:31:50;88370.22;;;20.75;70.83
8047;BME280;67150;42.516;23.358;2023-06-26T12:34:21;88367.31;;;20.78;70.62
8047;BME280;67150;42.516;23.358;2023-06-26T12:36:50;88368.88;;;20.79;70.54
8047;BME280;67150;42.516;23.358;2023-06-26T12:39:19;88379.78;;;20.81;70.47
8047;BME280;67150;42.516;23.358;2023-06-26T12:41:48;88371.44;;;20.79;70.41
8047;BME280;67150;42.516;23.358;2023-06-26T12:44:23;88369.53;;;20.81;70.56
8047;BME280;67150;42.516;23.358;2023-06-26T12:46:56;88367.31;;;20.78;70.42
8047;BME280;67150;42.516;23.358;2023-06-26T12:49:32;88361.03;;;20.81;70.47
8047;BME280;67150;42.516;23.358;2023-06-26T12:52:01;88368.88;;;20.79;70.28
8047;BME280;67150;42.516;23.358;2023-06-26T12:54:28;88364.56;;;20.80;70.37
8047;BME280;67150;42.516;23.358;2023-06-26T12:56:56;88376.22;;;20.82;70.45
8047;BME280;67150;42.516;23.358;2023-06-26T12:59:23;88363.41;;;20.82;70.37
8047;BME280;67150;42.516;23.358;2023-06-26T13:01:51;88378.78;;;20.82;70.12
8047;BME280;67150;42.516;23.358;2023-06-26T13:04:19;88375.75;;;20.79;70.22
8047;BME280;67150;42.516;23.358;2023-06-26T13:06:47;88380.38;;;20.83;70.16
8047;BME280;67150;42.516;23.358;2023-06-26T13:09:15;88381.34;;;20.82;70.27
8047;BME280;67150;42.516;23.358;2023-06-26T13:11:43;88386.47;;;20.82;70.25
8047;BME280;67150;42.516;23.358;2023-06-26T13:14:10;88387.28;;;20.83;70.24
8047;BME280;67150;42.516;23.358;2023-06-26T13:16:37;88384.91;;;20.81;70.27